Time;durP1;ratioP1;P1;durP2;ratioP2;P2;SDS_P1;SDS_P2;PMS_P1;PMS_P2;Temp;Humidity;BMP_temperature;BMP_pressure;BME280_temperature;BME280_humidity;BME280_pressure;Samples;Min_cycle;Max_cycle;Signal;HPM_P1;HPM_P2
2022/05/01 00:02:07;;;;;;;13.45;8.40;;;;;;;13.81;49.04;99013.81;5072543;28;20021;-49
2022/05/01 00:04:34;;;;;;;20.73;9.90;;;;;;;13.75;49.28;99024.16;5072513;28;20025;-50
2022/05/01 00:07:00;;;;;;;21.70;10.50;;;;;;;13.72;49.09;99015.88;5071150;28;20074;-49
2022/05/01 00:09:26;;;;;;;22.42;10.88;;;;;;;13.71;49.10;99022.19;5072767;28;20440;-50
2022/05/01 00:11:53;;;;;;;16.70;9.18;;;;;;;13.64;49.74;99019.56;5072433;28;20069;-51
2022/05/01 00:14:19;;;;;;;36.78;21.05;;;;;;;13.63;50.07;99014.53;5072254;28;20103;-50
2022/05/01 00:16:45;;;;;;;45.28;30.20;;;;;;;13.61;49.55;99006.81;5072274;28;20529;-50
2022/05/01 00:19:11;;;;;;;28.27;21.80;;;;;;;13.59;49.38;99011.50;5070956;28;20060;-50
2022/05/01 00:21:37;;;;;;;17.50;11.93;;;;;;;13.56;49.73;99009.25;5070945;28;20399;-48
2022/05/01 00:24:05;;;;;;;20.20;13.68;;;;;;;13.53;49.78;99007.06;5070846;28;20035;-50
2022/05/01 00:26:30;;;;;;;19.52;11.18;;;;;;;13.46;49.58;99012.38;5072165;28;20552;-50
2022/05/01 00:28:56;;;;;;;22.27;14.18;;;;;;;13.37;49.89;99005.72;5072154;28;20028;-50
2022/05/01 00:31:22;;;;;;;17.20;11.32;;;;;;;13.27;50.16;99005.34;5071901;28;20048;-48
2022/05/01 00:36:32;;;;;;;12.65;9.60;;;;;;;13.33;50.25;99004.53;5072100;28;20055;-49
2022/05/01 00:39:03;;;;;;;14.73;9.02;;;;;;;13.26;50.10;98999.25;5070713;28;20021;-51
2022/05/01 00:41:37;;;;;;;14.40;10.25;;;;;;;13.20;50.72;99005.38;5070603;28;20527;-49
2022/05/01 00:44:04;;;;;;;13.50;10.38;;;;;;;13.18;50.27;99005.56;5070648;28;20017;-50
2022/05/01 00:46:35;;;;;;;12.65;9.23;;;;;;;13.13;50.57;99000.09;5071048;28;20463;-50
2022/05/01 00:49:02;;;;;;;12.45;9.30;;;;;;;13.09;50.51;99003.38;5070588;28;20569;-49
2022/05/01 00:51:30;;;;;;;11.05;9.13;;;;;;;13.03;50.72;99002.38;5071803;28;20046;-49
2022/05/01 00:53:57;;;;;;;12.65;8.77;;;;;;;12.95;51.05;98998.16;5071754;28;20048;-50
2022/05/01 00:56:27;;;;;;;13.00;9.45;;;;;;;12.88;51.29;99002.66;5070438;28;20433;-49
2022/05/01 00:58:52;;;;;;;15.82;9.40;;;;;;;12.83;51.07;98999.00;5071758;28;20036;-49
2022/05/01 01:01:19;;;;;;;14.75;9.32;;;;;;;12.81;51.12;98996.56;5070408;28;20032;-49
2022/05/01 01:03:45;;;;;;;12.82;8.48;;;;;;;12.80;51.25;99000.25;5071737;28;20111;-49
2022/05/01 01:06:11;;;;;;;10.07;8.75;;;;;;;12.79;51.62;98999.41;5070329;28;20036;-50
2022/05/01 01:08:39;;;;;;;13.75;9.07;;;;;;;12.85;51.24;99003.03;5070365;28;20021;-49
2022/05/01 01:11:04;;;;;;;15.27;9.65;;;;;;;12.84;51.43;98998.81;5071594;28;20502;-50
2022/05/01 01:13:30;;;;;;;16.27;9.40;;;;;;;12.83;51.62;99005.06;5071599;28;20050;-49
2022/05/01 01:15:57;;;;;;;12.85;9.27;;;;;;;12.85;51.61;98991.72;5071584;28;20104;-50
2022/05/01 01:18:24;;;;;;;23.52;10.00;;;;;;;12.86;51.34;98996.78;5070320;28;20021;-49
2022/05/01 01:20:54;;;;;;;18.35;10.07;;;;;;;12.85;51.53;98996.97;5071582;28;20520;-49
2022/05/01 01:23:22;;;;;;;15.50;9.30;;;;;;;12.83;51.71;99002.44;5071542;28;20516;-50
2022/05/01 01:25:48;;;;;;;20.60;9.95;;;;;;;12.81;51.52;98996.56;5071821;28;20024;-50
2022/05/01 01:28:14;;;;;;;24.33;12.02;;;;;;;12.77;51.58;98992.72;5071464;28;20555;-49
2022/05/01 01:33:28;;;;;;;28.45;21.77;;;;;;;12.67;52.14;98995.00;5071432;28;20140;-49
2022/05/01 01:35:56;;;;;;;23.08;15.07;;;;;;;12.70;51.90;98991.97;5071420;28;20039;-49
2022/05/01 01:38:22;;;;;;;17.35;12.52;;;;;;;12.68;52.00;98994.00;5071425;28;20029;-50
2022/05/01 01:40:51;;;;;;;21.08;14.55;;;;;;;12.65;52.34;98994.38;5070018;28;20029;-50
2022/05/01 01:43:19;;;;;;;23.67;15.27;;;;;;;12.63;52.12;98996.41;5071662;28;20486;-50
2022/05/01 01:45:46;;;;;;;22.35;14.88;;;;;;;12.59;52.03;99004.72;5071362;28;20024;-50
2022/05/01 01:48:16;;;;;;;31.02;16.65;;;;;;;12.59;51.97;98996.00;5070000;28;20021;-49
2022/05/01 01:50:43;;;;;;;24.95;14.65;;;;;;;12.64;52.11;98992.78;5070077;28;20028;-50
2022/05/01 01:53:11;;;;;;;22.58;14.23;;;;;;;12.63;52.05;99002.47;5071186;28;20441;-50
2022/05/01 01:55:38;;;;;;;16.92;11.63;;;;;;;12.64;52.07;98998.06;5071203;28;20096;-49
2022/05/01 01:58:07;;;;;;;21.00;12.35;;;;;;;12.65;52.02;99002.28;5072105;28;20025;-49
2022/05/01 02:00:33;;;;;;;23.90;12.27;;;;;;;12.63;52.09;99001.69;5074916;28;20025;-50
2022/05/01 02:02:59;;;;;;;20.23;13.93;;;;;;;12.61;52.22;98999.25;5074950;28;20028;-49
2022/05/01 02:05:26;;;;;;;20.80;13.07;;;;;;;12.63;52.18;99002.47;5073551;28;20043;-49
2022/05/01 02:07:53;;;;;;;15.73;11.77;;;;;;;12.59;52.18;98994.19;5074742;28;20025;-50
2022/05/01 02:10:20;;;;;;;27.40;12.35;;;;;;;12.58;52.14;99005.75;5074762;28;20027;-49
2022/05/01 02:12:45;;;;;;;27.05;13.60;;;;;;;12.57;52.02;99005.94;5073344;28;20082;-49
2022/05/01 02:15:11;;;;;;;17.48;12.88;;;;;;;12.57;52.01;99009.38;5074631;28;20029;-50
2022/05/01 02:17:40;;;;;;;20.95;13.32;;;;;;;12.55;51.94;99008.78;5073297;28;20487;-49
2022/05/01 02:20:08;;;;;;;18.20;11.48;;;;;;;12.51;52.40;99004.13;5074597;28;20023;-49
2022/05/01 02:22:40;;;;;;;23.60;13.30;;;;;;;12.47;52.24;99011.63;5074567;28;20032;-49
2022/05/01 02:25:09;;;;;;;22.67;12.50;;;;;;;12.49;52.33;99009.59;5074518;28;20055;-49
2022/05/01 02:27:37;;;;;;;20.98;12.00;;;;;;;12.47;52.54;99011.63;5074480;28;20444;-50
2022/05/01 02:30:08;;;;;;;14.93;12.57;;;;;;;12.43;52.46;99010.41;5074103;28;20040;-50
2022/05/01 02:32:40;;;;;;;25.38;11.18;;;;;;;12.42;52.46;99003.53;5074423;28;20082;-50
2022/05/01 02:35:08;;;;;;;18.67;11.70;;;;;;;12.42;52.52;99006.19;5073030;28;20029;-49
2022/05/01 02:37:34;;;;;;;21.33;11.77;;;;;;;12.39;52.58;99004.78;5074362;28;20485;-50
2022/05/01 02:40:01;;;;;;;15.68;10.55;;;;;;;12.42;52.45;99008.00;5074292;28;20025;-50
2022/05/01 02:42:26;;;;;;;14.93;11.18;;;;;;;12.42;52.22;99000.91;5074256;28;20051;-50
2022/05/01 02:44:52;;;;;;;22.30;11.35;;;;;;;12.41;52.36;98995.84;5074199;28;20495;-50
2022/05/01 02:47:18;;;;;;;16.60;11.23;;;;;;;12.41;52.57;98995.84;5072925;28;20024;-49
2022/05/01 02:49:43;;;;;;;15.48;11.57;;;;;;;12.36;52.37;98997.28;5074099;28;20047;-50
2022/05/01 02:52:10;;;;;;;20.27;12.65;;;;;;;12.25;52.84;98994.44;5089408;28;20016;-49
2022/05/01 02:54:35;;;;;;;15.40;12.10;;;;;;;12.17;53.07;98992.81;5073960;28;20032;-49
2022/05/01 02:57:02;;;;;;;18.35;11.82;;;;;;;12.13;53.45;98992.44;5073945;28;20020;-50
2022/05/01 02:59:29;;;;;;;14.82;11.18;;;;;;;12.11;53.30;98991.81;5073838;28;20513;-50
2022/05/01 03:01:55;;;;;;;16.48;11.80;;;;;;;12.07;53.44;98987.94;5089367;28;20024;-50
2022/05/01 03:04:21;;;;;;;15.38;11.88;;;;;;;12.02;53.30;98985.13;5072484;28;20025;-49
2022/05/01 03:06:47;;;;;;;21.75;11.63;;;;;;;11.96;53.49;98988.56;5073754;28;20405;-50
2022/05/01 03:09:13;;;;;;;33.45;13.38;;;;;;;11.87;53.68;98985.31;5073181;28;20074;-50
2022/05/01 03:11:39;;;;;;;20.08;13.07;;;;;;;11.78;53.85;98984.69;5073348;28;20431;-49
2022/05/01 03:14:09;;;;;;;37.80;12.95;;;;;;;11.69;54.30;98995.56;5072195;28;20028;-49
2022/05/01 03:16:35;;;;;;;32.03;13.82;;;;;;;11.67;54.28;98993.16;5073618;28;20104;-49
2022/05/01 03:24:30;;;;;;;14.52;11.73;;;;;;;11.47;54.67;98993.13;5073419;28;20095;-49
2022/05/01 03:26:56;;;;;;;14.63;11.65;;;;;;;11.40;54.90;98990.47;5071977;28;20044;-49
2022/05/01 03:29:23;;;;;;;30.30;13.85;;;;;;;11.35;55.18;98985.00;5071717;28;20504;-49
2022/05/01 03:31:50;;;;;;;20.50;13.05;;;;;;;11.32;55.40;98993.28;5073226;28;20036;-49
2022/05/01 03:34:17;;;;;;;19.27;13.05;;;;;;;11.30;55.27;98990.03;5071784;28;20021;-49
2022/05/01 03:36:44;;;;;;;27.23;12.98;;;;;;;11.25;55.41;98989.00;5073090;28;20025;-49
2022/05/01 03:39:10;;;;;;;27.33;13.82;;;;;;;11.21;55.34;98988.59;5071787;28;20024;-49
2022/05/01 03:41:36;;;;;;;16.80;12.60;;;;;;;11.16;55.56;98986.53;5073327;28;20024;-49
2022/05/01 03:44:02;;;;;;;24.50;13.85;;;;;;;11.12;55.75;98984.50;5088524;28;20036;-49
2022/05/01 03:46:27;;;;;;;16.42;13.63;;;;;;;11.06;55.98;98983.47;5072951;28;20024;-50
2022/05/01 03:48:53;;;;;;;19.30;13.15;;;;;;;11.02;56.25;98991.94;5071537;28;20095;-49
2022/05/01 03:51:19;;;;;;;18.25;14.10;;;;;;;11.03;56.30;98988.31;5071507;28;20038;-48
2022/05/01 03:53:47;;;;;;;21.83;14.90;;;;;;;10.98;56.49;98988.91;5072713;28;20437;-49
2022/05/01 03:56:13;;;;;;;19.80;14.50;;;;;;;10.94;56.58;98990.28;5073003;28;20035;-49
2022/05/01 03:58:39;;;;;;;25.20;14.45;;;;;;;10.89;56.95;98993.50;5072697;28;20032;-49
2022/05/01 04:01:05;;;;;;;21.50;15.45;;;;;;;10.87;57.24;98990.28;5071295;28;20494;-50
2022/05/01 04:03:31;;;;;;;20.80;15.15;;;;;;;10.85;56.80;98989.66;5071286;28;20029;-49
2022/05/01 04:05:57;;;;;;;19.80;14.80;;;;;;;10.83;56.85;98989.03;5088089;28;20409;-50
2022/05/01 04:08:22;;;;;;;22.13;15.02;;;;;;;10.81;57.31;98990.25;5072501;28;20044;-48
2022/05/01 04:10:49;;;;;;;18.45;14.32;;;;;;;10.79;57.00;98996.47;5072451;28;20039;-50
2022/05/01 04:13:15;;;;;;;18.38;14.00;;;;;;;10.73;57.15;98991.22;5072390;28;20480;-49
2022/05/01 04:15:41;;;;;;;20.90;15.98;;;;;;;10.72;57.33;98992.19;5070981;28;20025;-50
2022/05/01 04:18:08;;;;;;;20.38;15.95;;;;;;;10.69;57.37;98988.16;5071032;28;20028;-49
2022/05/01 04:20:38;;;;;;;21.17;14.98;;;;;;;10.72;57.59;98997.44;5072163;28;20032;-49
2022/05/01 04:23:06;;;;;;;19.60;14.93;;;;;;;10.73;57.75;98992.00;5072583;28;20021;-49
2022/05/01 04:25:33;;;;;;;23.45;15.13;;;;;;;10.77;57.76;98982.75;5070867;28;20031;-49
2022/05/01 04:28:02;;;;;;;20.98;14.43;;;;;;;10.78;57.56;98994.88;5072404;28;20070;-49
2022/05/01 04:30:28;;;;;;;24.00;15.02;;;;;;;10.81;57.48;98993.66;5070508;28;20044;-49
2022/05/01 04:32:59;;;;;;;21.45;14.88;;;;;;;10.85;57.95;98991.47;5070678;28;20025;-49
2022/05/01 04:35:29;;;;;;;18.38;14.60;;;;;;;10.91;57.41;98990.69;5070759;28;20469;-49
2022/05/01 04:37:59;;;;;;;17.73;15.15;;;;;;;10.94;57.43;98991.09;5070774;28;20033;-49
2022/05/01 04:40:34;;;;;;;22.83;14.48;;;;;;;11.02;57.09;98990.13;5072286;28;20415;-49
2022/05/01 04:43:09;;;;;;;17.90;13.55;;;;;;;11.07;57.24;98998.25;5072332;28;20036;-50
2022/05/01 04:45:37;;;;;;;17.55;14.30;;;;;;;11.08;56.99;98999.84;5070621;28;20093;-49
2022/05/01 04:48:04;;;;;;;16.60;12.10;;;;;;;11.09;56.72;99000.69;5070606;28;20098;-48
2022/05/01 04:50:31;;;;;;;19.30;14.02;;;;;;;11.06;57.00;98999.22;5071951;28;20392;-49
2022/05/01 04:53:00;;;;;;;17.98;12.63;;;;;;;11.17;56.71;98995.25;5071801;28;20112;-50
2022/05/01 04:55:26;;;;;;;19.90;14.50;;;;;;;11.42;56.24;98992.91;5071866;28;20020;-50
2022/05/01 04:57:52;;;;;;;21.00;14.93;;;;;;;11.71;55.56;98996.19;5071860;28;20111;-49
2022/05/01 05:00:21;;;;;;;18.45;13.40;;;;;;;12.12;54.78;98993.44;5071814;28;20021;-50
2022/05/01 05:02:50;;;;;;;16.13;12.85;;;;;;;12.63;53.39;98999.84;5071777;28;20042;-49
2022/05/01 05:05:16;;;;;;;18.10;13.27;;;;;;;13.19;52.47;98999.28;5070429;28;20028;-49
2022/05/01 05:07:42;;;;;;;21.50;14.02;;;;;;;13.49;51.00;98992.69;5070417;28;20029;-50
2022/05/01 05:10:09;;;;;;;12.57;11.27;;;;;;;13.67;50.43;98998.06;5070327;28;20162;-50
2022/05/01 05:12:36;;;;;;;22.58;15.73;;;;;;;13.91;49.97;98993.81;5070258;28;20029;-50
2022/05/01 05:15:09;;;;;;;15.85;11.50;;;;;;;14.12;49.06;98995.28;5070342;28;20089;-49
2022/05/01 05:17:36;;;;;;;18.33;13.52;;;;;;;14.04;49.05;98998.19;5070272;28;20033;-49
2022/05/01 05:20:03;;;;;;;23.67;14.60;;;;;;;14.03;49.13;98996.59;5071580;28;20017;-49
2022/05/01 05:22:28;;;;;;;18.52;12.35;;;;;;;14.21;49.04;98995.03;5071537;28;20024;-49
2022/05/01 05:24:54;;;;;;;17.38;11.40;;;;;;;14.46;48.15;99005.56;5070256;28;20032;-50
2022/05/01 05:27:21;;;;;;;13.55;10.20;;;;;;;14.65;47.61;98995.84;5071527;28;20032;-49
2022/05/01 05:29:47;;;;;;;14.90;11.35;;;;;;;14.93;47.42;99004.09;5071263;28;20036;-50
2022/05/01 05:32:14;;;;;;;18.15;12.98;;;;;;;15.22;46.32;98999.06;5071529;28;20032;-50
2022/05/01 05:34:40;;;;;;;14.00;10.68;;;;;;;15.41;45.73;99005.13;5073605;28;20024;-49
2022/05/01 05:37:06;;;;;;;12.73;9.60;;;;;;;15.75;44.77;98994.94;5074156;28;20027;-50
2022/05/01 05:39:32;;;;;;;15.75;10.27;;;;;;;16.21;43.88;98992.59;5074085;28;20502;-50
2022/05/01 05:41:58;;;;;;;22.77;15.50;;;;;;;16.78;43.21;98993.63;5075308;28;20029;-49
2022/05/01 05:44:24;;;;;;;11.40;9.50;;;;;;;17.34;41.66;99001.91;5075351;28;20074;-50
2022/05/01 05:46:50;;;;;;;117.30;49.33;;;;;;;17.74;40.83;99003.69;5073897;28;20032;-50
2022/05/01 05:49:16;;;;;;;54.95;25.75;;;;;;;18.05;40.26;99004.25;5090708;28;20029;-49
2022/05/01 05:51:42;;;;;;;57.90;27.95;;;;;;;18.58;39.15;98999.44;5073790;28;20029;-50
2022/05/01 05:54:07;;;;;;;80.97;33.45;;;;;;;19.27;38.23;98998.97;5073699;28;20111;-49
2022/05/01 05:56:33;;;;;;;74.50;26.85;;;;;;;19.92;37.17;99001.75;5074980;28;20070;-49
2022/05/01 05:58:59;;;;;;;23.98;14.13;;;;;;;20.85;35.84;98992.56;5075045;28;20103;-51
2022/05/01 06:01:25;;;;;;;40.72;16.50;;;;;;;21.71;34.63;98999.22;5074950;28;20016;-50
2022/05/01 06:03:51;;;;;;;30.13;12.73;;;;;;;22.47;33.00;98997.59;5074792;28;20059;-50
2022/05/01 06:06:18;;;;;;;52.28;20.10;;;;;;;22.78;32.73;98992.16;5074881;28;20067;-50
2022/05/01 06:08:44;;;;;;;26.48;16.00;;;;;;;23.13;32.45;98991.25;5074827;28;20095;-51
2022/05/01 06:11:10;;;;;;;19.55;13.35;;;;;;;23.81;31.29;98989.81;5074773;28;20107;-50
2022/05/01 06:13:36;;;;;;;28.52;14.98;;;;;;;24.36;30.12;98992.25;5074638;28;20398;-50
2022/05/01 06:16:02;;;;;;;21.15;11.40;;;;;;;24.69;29.50;98991.41;5074687;28;20023;-50
2022/05/01 06:18:28;;;;;;;28.83;13.77;;;;;;;24.72;28.95;98988.13;5073299;28;20029;-51
2022/05/01 06:20:54;;;;;;;27.95;12.98;;;;;;;24.90;28.56;98983.91;5074570;28;20021;-50
2022/05/01 06:23:20;;;;;;;37.47;13.88;;;;;;;24.99;28.42;98985.94;5073275;28;20029;-50
2022/05/01 06:25:47;;;;;;;15.77;10.73;;;;;;;25.14;27.96;98985.75;5075015;28;20103;-51
2022/05/01 06:28:16;;;;;;;22.83;11.98;;;;;;;25.47;27.77;98996.59;5074497;28;20085;-51
2022/05/01 06:30:45;;;;;;;24.65;12.35;;;;;;;25.67;27.25;98988.22;5074127;28;20040;-50
2022/05/01 06:33:13;;;;;;;27.17;11.63;;;;;;;25.88;26.76;98990.63;5074296;28;20494;-50
2022/05/01 06:35:40;;;;;;;21.30;11.50;;;;;;;26.17;26.31;98995.78;5089877;28;20127;-50
2022/05/01 06:38:07;;;;;;;26.58;11.70;;;;;;;26.55;26.17;98997.56;5072979;28;20020;-50
2022/05/01 06:40:35;;;;;;;15.85;11.02;;;;;;;27.03;25.32;98997.16;5072956;28;20025;-50
2022/05/01 06:43:00;;;;;;;16.98;10.95;;;;;;;27.27;24.99;98997.75;5074270;28;20111;-50
2022/05/01 06:45:26;;;;;;;21.35;10.70;;;;;;;27.41;24.58;98997.72;5071502;28;20044;-50
2022/05/01 06:47:52;;;;;;;16.55;10.77;;;;;;;27.42;24.68;99003.91;5072828;28;20016;-50
2022/05/01 06:50:18;;;;;;;20.88;12.10;;;;;;;27.52;24.84;99000.97;5072762;28;20498;-50
2022/05/01 06:52:44;;;;;;;26.80;12.88;;;;;;;27.60;24.49;99002.94;5073998;28;20525;-50
2022/05/01 06:55:09;;;;;;;22.25;11.70;;;;;;;27.62;24.46;99003.44;5072685;28;20036;-51
2022/05/01 06:57:35;;;;;;;19.85;11.30;;;;;;;27.63;25.01;98996.94;5073919;28;20028;-51
2022/05/01 07:00:01;;;;;;;14.52;10.23;;;;;;;27.68;24.55;98996.00;5073892;28;20031;-49
2022/05/01 07:02:27;;;;;;;18.65;11.15;;;;;;;27.70;24.46;98991.91;5073866;28;20508;-50
2022/05/01 07:04:53;;;;;;;21.38;11.10;;;;;;;27.59;24.80;98987.88;5072506;28;20520;-50
2022/05/01 07:07:19;;;;;;;21.73;11.55;;;;;;;27.67;24.86;98997.94;5073740;28;20108;-51
2022/05/01 07:09:44;;;;;;;16.48;10.32;;;;;;;27.58;25.01;98999.75;5072427;28;20024;-50
2022/05/01 07:12:11;;;;;;;14.40;9.93;;;;;;;27.64;24.99;99001.22;5073640;28;20017;-50
2022/05/01 07:14:40;;;;;;;16.35;10.30;;;;;;;27.77;24.93;98996.88;5073570;28;20044;-51
2022/05/01 07:17:06;;;;;;;11.55;10.02;;;;;;;28.06;24.63;98990.28;5072272;28;20063;-50
2022/05/01 07:19:31;;;;;;;14.88;9.60;;;;;;;28.40;24.14;98997.75;5072203;28;20064;-51
2022/05/01 07:21:57;;;;;;;14.23;10.27;;;;;;;29.02;23.75;98994.16;5072160;28;20078;-51
2022/05/01 07:24:23;;;;;;;22.63;11.50;;;;;;;29.88;22.74;98989.13;5072395;28;20035;-51
2022/05/01 07:26:48;;;;;;;14.50;10.10;;;;;;;30.61;21.75;98991.81;5072096;28;20029;-51
2022/05/01 07:29:14;;;;;;;13.55;9.93;;;;;;;31.05;21.24;98983.47;5073198;28;20031;-51
2022/05/01 07:31:42;;;;;;;12.00;10.02;;;;;;;31.32;21.25;98989.47;5071929;28;20055;-51
2022/05/01 07:34:09;;;;;;;12.65;10.65;;;;;;;31.77;20.50;98972.50;5073194;28;20502;-51
2022/05/01 07:36:35;;;;;;;9.50;8.52;;;;;;;31.88;20.22;98979.09;5073210;28;20028;-50
2022/05/01 07:39:01;;;;;;;13.15;9.50;;;;;;;32.00;20.18;98978.38;5073143;28;20021;-50
2022/05/01 07:41:27;;;;;;;13.95;9.30;;;;;;;32.40;19.77;98981.25;5071744;28;20498;-51
2022/05/01 07:43:55;;;;;;;12.07;9.68;;;;;;;32.82;19.53;98989.22;5073031;28;20040;-51
2022/05/01 07:46:22;;;;;;;12.15;10.55;;;;;;;33.11;19.40;98984.66;5072864;28;20025;-50
2022/05/01 07:48:48;;;;;;;13.38;8.90;;;;;;;33.23;18.75;98981.13;5072913;28;20043;-52
2022/05/01 07:51:17;;;;;;;10.30;8.98;;;;;;;33.29;19.11;98978.97;5071498;28;20510;-49
2022/05/01 07:53:43;;;;;;;13.77;8.70;;;;;;;33.06;18.86;98976.69;5072722;28;20440;-50
2022/05/01 07:56:09;;;;;;;10.25;9.23;;;;;;;33.02;19.18;98978.53;5071056;28;20048;-50
2022/05/01 07:58:35;;;;;;;11.07;9.50;;;;;;;33.17;19.08;98982.50;5072666;28;20024;-51
2022/05/01 08:01:03;;;;;;;10.65;9.32;;;;;;;33.27;18.81;98983.97;5071427;28;20032;-51
2022/05/01 08:06:13;;;;;;;10.00;8.88;;;;;;;32.97;19.00;98979.56;5072599;28;20065;-51
2022/05/01 08:08:42;;;;;;;9.60;8.70;;;;;;;32.71;19.28;98974.50;5072483;28;20402;-51
2022/05/01 08:11:10;;;;;;;9.90;8.90;;;;;;;32.27;19.79;98976.94;5071172;28;20587;-51
2022/05/01 08:13:35;;;;;;;11.68;8.90;;;;;;;32.23;19.83;98970.59;5072400;28;20482;-51
2022/05/01 08:16:01;;;;;;;15.82;9.07;;;;;;;32.08;19.76;98972.06;5071039;28;20059;-51
2022/05/01 08:21:11;;;;;;;9.05;8.25;;;;;;;31.53;20.61;98975.91;5072284;28;20529;-51
2022/05/01 08:23:41;;;;;;;9.77;8.60;;;;;;;31.44;20.71;98974.09;5070877;28;20040;-51
2022/05/01 08:26:10;;;;;;;9.40;8.30;;;;;;;31.45;20.83;98985.72;5072174;28;20027;-50
2022/05/01 08:28:38;;;;;;;9.68;8.77;;;;;;;31.56;20.60;98976.06;5070754;28;20447;-50
2022/05/01 08:31:05;;;;;;;11.20;9.30;;;;;;;31.68;20.49;98977.25;5071881;28;20044;-51
2022/05/01 08:33:32;;;;;;;10.70;8.60;;;;;;;31.93;20.39;98968.03;5072018;28;20027;-51
2022/05/01 08:36:02;;;;;;;9.40;8.40;;;;;;;32.80;19.99;98972.47;5071974;28;20045;-51
2022/05/01 08:38:28;;;;;;;10.52;7.38;;;;;;;33.18;19.13;98967.75;5072044;28;20020;-51
2022/05/01 08:40:54;;;;;;;8.88;7.95;;;;;;;33.53;18.92;98967.97;5070751;28;20034;-51
2022/05/01 08:43:22;;;;;;;10.93;8.55;;;;;;;33.99;18.70;98964.94;5071950;28;20099;-51
2022/05/01 08:45:59;;;;;;;11.38;8.73;;;;;;;34.60;18.16;98953.59;5070627;28;20109;-51
2022/05/01 08:48:35;;;;;;;11.65;8.25;;;;;;;35.05;17.30;98965.13;5071993;28;20025;-51
2022/05/01 08:51:04;;;;;;;9.10;8.10;;;;;;;35.50;17.10;98961.00;5070611;28;20036;-51
2022/05/01 08:53:31;;;;;;;12.68;8.40;;;;;;;35.80;16.74;98960.41;5071764;28;20017;-50
2022/05/01 08:55:59;;;;;;;11.40;8.27;;;;;;;35.78;16.63;98960.78;5070534;28;20046;-51
2022/05/01 08:58:29;;;;;;;8.07;7.28;;;;;;;36.04;16.52;98961.19;5071781;28;20513;-50
2022/05/01 09:00:55;;;;;;;8.20;7.32;;;;;;;36.29;16.27;98950.72;5070444;28;20086;-52
2022/05/01 09:03:21;;;;;;;10.48;7.90;;;;;;;36.52;16.18;98953.41;5070612;28;20033;-51
2022/05/01 09:05:46;;;;;;;8.75;7.57;;;;;;;36.25;16.18;98958.06;5072012;28;20398;-50
2022/05/01 09:08:12;;;;;;;10.55;7.95;;;;;;;36.29;16.23;98954.22;5070905;28;20017;-51
2022/05/01 09:10:42;;;;;;;9.77;7.53;;;;;;;36.31;16.17;98954.66;5071697;28;20031;-51
2022/05/01 09:13:08;;;;;;;8.13;7.28;;;;;;;36.32;16.22;98950.78;5071595;28;20612;-51
2022/05/01 09:15:43;;;;;;;9.93;7.68;;;;;;;36.48;16.07;98945.13;5071635;28;20573;-51
2022/05/01 09:18:11;;;;;;;8.65;7.53;;;;;;;36.37;16.04;98944.22;5070283;28;20029;-51
2022/05/01 09:20:57;;;;;;;10.80;7.53;;;;;;;36.20;16.23;98950.94;5070254;28;20508;-51
2022/05/01 09:23:43;;;;;;;7.75;6.95;;;;;;;36.25;16.49;98952.59;5070166;28;20383;-51
2022/05/01 09:26:12;;;;;;;9.23;6.78;;;;;;;36.04;16.33;98948.34;5071510;28;20020;-51
2022/05/01 09:28:51;;;;;;;8.07;6.95;;;;;;;35.97;16.57;98948.22;5071536;28;20025;-52
2022/05/01 09:31:22;;;;;;;7.93;6.10;;;;;;;36.33;16.09;98946.88;5069962;28;20055;-51
2022/05/01 09:33:47;;;;;;;7.50;6.80;;;;;;;36.52;15.98;98942.47;5071450;28;20146;-52
2022/05/01 09:36:36;;;;;;;10.13;6.60;;;;;;;36.38;16.01;98943.03;5070084;28;20123;-50
2022/05/01 09:39:04;;;;;;;8.77;6.97;;;;;;;35.92;16.72;98938.38;5071448;28;20486;-51
2022/05/01 09:41:30;;;;;;;10.52;7.00;;;;;;;35.91;16.90;98938.75;5071365;28;20020;-52
2022/05/01 09:43:55;;;;;;;7.20;6.30;;;;;;;36.13;16.48;98937.16;5071392;28;20098;-51
2022/05/01 09:46:23;;;;;;;8.27;6.03;;;;;;;36.12;16.55;98933.66;5071298;28;20103;-51
2022/05/01 09:49:05;;;;;;;8.80;6.03;;;;;;;36.70;16.38;98918.91;5071317;28;20029;-51
2022/05/01 09:51:33;;;;;;;7.13;5.90;;;;;;;36.40;15.50;98929.78;5070018;28;20082;-51
2022/05/01 09:54:01;;;;;;;7.40;6.25;;;;;;;36.14;16.23;98927.78;5069868;28;20029;-51
2022/05/01 09:56:27;;;;;;;9.82;6.80;;;;;;;36.07;16.10;98925.75;5069928;28;20021;-51
2022/05/01 09:59:01;;;;;;;6.82;5.63;;;;;;;36.12;16.51;98919.97;5069973;28;20036;-52
2022/05/01 10:01:27;;;;;;;;;;;;;;;36.34;16.45;98918.41;5070315;28;20433;-52
2022/05/01 10:03:54;;;;;;;6.10;5.45;;;;;;;35.11;16.63;98922.75;5071183;28;20004;-51
2022/05/01 10:06:21;;;;;;;5.78;5.22;;;;;;;33.68;18.02;98924.84;5071130;28;20021;-50
2022/05/01 10:08:47;;;;;;;6.65;5.90;;;;;;;32.98;18.50;98928.69;5069824;28;20024;-50
2022/05/01 10:11:16;;;;;;;6.30;5.60;;;;;;;33.03;18.34;98918.38;5053503;28;20035;-50
2022/05/01 10:13:44;;;;;;;6.85;5.80;;;;;;;33.12;18.72;98918.28;5070988;28;20051;-51
2022/05/01 10:16:11;;;;;;;7.32;6.03;;;;;;;33.58;18.21;98918.72;5071017;28;20089;-51
2022/05/01 10:18:38;;;;;;;6.55;5.40;;;;;;;33.82;17.66;98923.28;5069966;28;20029;-51
2022/05/01 10:21:06;;;;;;;6.78;5.00;;;;;;;33.66;17.94;98916.22;5073296;28;20025;-50
2022/05/01 10:23:34;;;;;;;6.30;4.95;;;;;;;33.55;17.65;98908.56;5074548;28;20052;-50
2022/05/01 10:26:06;;;;;;;7.25;5.68;;;;;;;33.83;18.11;98918.63;5074473;28;20035;-51
2022/05/01 10:28:53;;;;;;;6.65;5.90;;;;;;;34.30;18.14;98909.69;5074546;28;20020;-51
2022/05/01 10:35:18;;;;;;;6.28;5.43;;;;;;;33.78;18.13;98910.72;5074387;28;20090;-51
2022/05/01 10:38:10;;;;;;;6.38;4.90;;;;;;;34.17;17.77;98898.09;5074343;28;20032;-50
2022/05/01 10:40:54;;;;;;;6.70;4.97;;;;;;;34.49;17.50;98899.97;5072978;28;20410;-50
2022/05/01 10:43:37;;;;;;;5.15;4.25;;;;;;;34.77;17.22;98889.75;5074228;28;20052;-51
2022/05/01 10:46:22;;;;;;;5.43;4.60;;;;;;;34.62;17.17;98882.38;5074204;28;20486;-51
2022/05/01 10:48:48;;;;;;;5.53;4.10;;;;;;;34.57;17.15;98891.63;5073054;28;20107;-51
2022/05/01 10:51:36;;;;;;;5.07;4.53;;;;;;;34.75;17.17;98877.59;5074065;28;20379;-52
2022/05/01 10:54:11;;;;;;;6.22;4.40;;;;;;;34.73;16.76;98877.97;5073996;28;20546;-51
2022/05/01 10:56:41;;;;;;;5.75;4.70;;;;;;;34.62;16.88;98866.00;5072645;28;20394;-51
2022/05/01 10:59:29;;;;;;;6.32;4.05;;;;;;;34.46;17.36;98855.16;5072604;28;20052;-51
2022/05/01 11:01:58;;;;;;;7.00;4.30;;;;;;;33.68;17.77;98859.50;5072532;28;20394;-50
2022/05/01 11:04:24;;;;;;;6.55;4.35;;;;;;;33.35;17.73;98855.16;5073850;28;20028;-50
2022/05/01 11:06:55;;;;;;;5.47;4.82;;;;;;;33.10;18.71;98854.47;5072448;28;20024;-51
2022/05/01 11:09:25;;;;;;;5.82;4.13;;;;;;;33.49;17.73;98852.00;5073745;28;20021;-50
2022/05/01 11:11:58;;;;;;;6.20;4.10;;;;;;;32.52;18.41;98852.78;5073943;28;20032;-50
2022/05/01 11:14:39;;;;;;;8.38;4.03;;;;;;;31.75;19.15;98849.91;5072312;28;20032;-51
2022/05/01 11:17:07;;;;;;;3.85;3.45;;;;;;;31.77;19.00;98840.31;5072365;28;20028;-51
2022/05/01 11:19:50;;;;;;;6.85;3.95;;;;;;;32.02;19.01;98827.59;5073507;28;20074;-51
2022/05/01 11:22:16;;;;;;;4.07;3.13;;;;;;;32.35;18.55;98844.88;5073566;28;20063;-50
2022/05/01 11:24:44;;;;;;;6.55;3.47;;;;;;;31.17;19.57;98833.59;5073418;28;20153;-50
2022/05/01 11:27:16;;;;;;;4.95;3.70;;;;;;;29.70;20.67;98844.97;5073326;28;20095;-50
2022/05/01 11:30:07;;;;;;;4.97;3.80;;;;;;;29.26;21.92;98836.16;5071781;28;20411;-50
2022/05/01 11:33:09;;;;;;;6.25;4.03;;;;;;;29.78;20.95;98827.13;5071496;28;20028;-50
2022/05/01 11:35:56;;;;;;;4.70;3.70;;;;;;;29.55;21.38;98818.44;5071953;28;20024;-51
2022/05/01 11:38:33;;;;;;;4.90;3.15;;;;;;;28.78;21.59;98823.63;5071851;28;20028;-50
2022/05/01 11:41:02;;;;;;;3.55;2.78;;;;;;;27.56;22.74;98815.13;5073141;28;20036;-49
2022/05/01 11:43:34;;;;;;;7.22;3.13;;;;;;;27.35;23.47;98815.66;5071754;28;20043;-49
2022/05/01 11:46:01;;;;;;;5.40;2.90;;;;;;;27.63;22.65;98812.78;5072927;28;20616;-49
2022/05/01 11:48:28;;;;;;;3.80;2.95;;;;;;;26.97;23.02;98802.53;5072963;28;20059;-51